This is the latest recevied weather packets stored in our database for station/object TA2EE-10. If no packets are shown the sender has not sent any weather packets the latest 10 day(s).
| Time | Temp. | Humidity | Pressure | Rain* | Wind** | Luminosity | Snow |
|---|---|---|---|---|---|---|---|
| 1777981772 | 19.44° C | 37% | 911 hPa | - | - | 0 W/m² | - |
| 1777979650 | 19.44° C | 38% | 911 hPa | - | - | 0 W/m² | - |
| 1777977528 | 20° C | 37% | 911 hPa | - | - | 0 W/m² | - |
| 1777975406 | 21.11° C | 35% | 911 hPa | - | - | 0 W/m² | - |
| 1777973282 | 21.11° C | 34% | 911 hPa | - | - | 0 W/m² | - |
| 1777971161 | 21.67° C | 32% | 911 hPa | - | - | 0 W/m² | - |
| 1777969037 | 22.78° C | 31% | 911 hPa | - | - | 0 W/m² | - |
| 1777966915 | 22.78° C | 30% | 911 hPa | - | - | 0 W/m² | - |
| 1777964793 | 20.56° C | 34% | 912 hPa | - | - | 0 W/m² | - |
| 1777962671 | 20° C | 34% | 911 hPa | - | - | 0 W/m² | - |
| 1777960548 | 16.67° C | 39% | 911 hPa | - | - | 0 W/m² | - |
| 1777958426 | 13.89° C | 45% | 911 hPa | - | - | 0 W/m² | - |
| 1777956304 | 12.78° C | 47% | 911 hPa | - | - | 0 W/m² | - |
| 1777956236 | 12.78° C | 47% | 911 hPa | - | - | 0 W/m² | - |
| 1777954114 | 13.33° C | 47% | 911 hPa | - | - | 0 W/m² | - |
| 1777951992 | 12.78° C | 47% | 911 hPa | - | - | 0 W/m² | - |
| 1777949870 | 13.33° C | 46% | 911 hPa | - | - | 0 W/m² | - |
| 1777947747 | 13.33° C | 46% | 910 hPa | - | - | 0 W/m² | - |
| 1777945625 | 13.33° C | 46% | 910 hPa | - | - | 0 W/m² | - |
| 1777943502 | 13.33° C | 45% | 910 hPa | - | - | 0 W/m² | - |
| 1777941380 | 13.89° C | 45% | 910 hPa | - | - | 0 W/m² | - |
| 1777939258 | 13.89° C | 45% | 910 hPa | - | - | 0 W/m² | - |
| 1777937136 | 13.89° C | 45% | 910 hPa | - | - | 0 W/m² | - |
| 1777935013 | 13.89° C | 44% | 910 hPa | - | - | 0 W/m² | - |
| 1777932890 | 13.89° C | 44% | 910 hPa | - | - | 0 W/m² | - |
* Rain since midnight (hover to see other rain measurements)
** Current wind speed in m/s (hover to see current wind gust speed)